Kezdőlap
METAR-TAF:

METAR-TAF

Repülőterek :

Pian Rosa, Olaszország

földrajzi szélesség: 45-56N, földrajzi hosszúság: 007-42E, magasság: 3480 m

Jelenlegi meteorológiai megfigyelések

A jelentés 24 perccel ezelõtt készült, 19:55 UTC
Északi szél 19 kt széllökések: 32 kt
Hőmérséklet -4°C
Páratartalom 54%
Légköri nyomás 1035 hPa
Látótávolság 10 km, vagy több
felhőtlen 1500 m magasságban, és nincs gomolyfelhõ

METAR: LIMH 221955Z 36019G32KT CAVOK M04/M12 Q1035 RMK FEW FEW100 MON LIB VAL S FOSCHIA VIS MIN 9999

Idő: 21:19 (20:19 UTC)


TAF: hiányzik

Meteorológiai megfigyelések és előrejelzések több, mint 4000 repülőtéren (METAR és TAF jelentéseket).

A térképen piros és sárga pontok jelzik az elérhető meteorológiai állomásokat.

Mozgassa az egeret a pont fölött, hogy megjelenjen az állomás neve.

Azután kattintson az időjárási megfigyelések és előrejelzések megtekintéséhez.

A térkép megváltoztatása: kattintson a fekete keresztel jelölt zöld gombra ráközelítéshez, a vonallal jelölt zöld gombra távolításhoz, vagy a zöld nyilakra a szomszédos térképek eléréséhez.


METAR-TAF: